createdAt,value
2019-05-17T00:00:17.082Z,9.57
2019-05-17T00:01:17.047Z,9.61
2019-05-17T00:02:17.583Z,9.58
2019-05-17T00:03:17.194Z,9.61
2019-05-17T00:04:17.010Z,9.56
2019-05-17T00:05:17.717Z,9.58
2019-05-17T00:06:17.045Z,9.50
2019-05-17T00:07:17.000Z,9.56
2019-05-17T00:08:29.843Z,9.51
2019-05-17T00:09:17.958Z,9.54
2019-05-17T00:10:17.501Z,9.47
2019-05-17T00:11:27.297Z,9.46
2019-05-17T00:12:16.933Z,9.58
2019-05-17T00:13:17.447Z,9.53
2019-05-17T00:14:16.968Z,9.48
2019-05-17T00:15:17.222Z,9.58
2019-05-17T00:16:17.479Z,9.54
2019-05-17T00:17:17.429Z,9.48
2019-05-17T00:18:17.259Z,9.43
2019-05-17T00:19:17.114Z,9.54
2019-05-17T00:20:17.553Z,9.54
2019-05-17T00:21:17.098Z,9.48
2019-05-17T00:22:16.923Z,9.46
2019-05-17T00:23:17.362Z,9.48
2019-05-17T00:24:18.355Z,9.60
2019-05-17T00:25:16.856Z,9.48
2019-05-17T00:26:16.773Z,9.48
2019-05-17T00:27:17.251Z,9.47
2019-05-17T00:28:16.788Z,9.42
2019-05-17T00:29:17.275Z,9.39
2019-05-17T00:30:17.509Z,9.35
2019-05-17T00:31:17.155Z,9.36
2019-05-17T00:32:17.208Z,9.32
2019-05-17T00:33:17.046Z,9.35
2019-05-17T00:34:16.930Z,9.28
2019-05-17T00:35:17.891Z,9.26
2019-05-17T00:36:17.806Z,9.21
2019-05-17T00:37:17.344Z,9.24
2019-05-17T00:38:17.027Z,9.26
2019-05-17T00:39:16.882Z,9.24
2019-05-17T00:40:16.919Z,9.35
2019-05-17T00:41:17.680Z,9.29
2019-05-17T00:42:17.145Z,9.36
2019-05-17T00:43:17.027Z,9.35
2019-05-17T00:44:16.879Z,9.38
2019-05-17T00:45:26.719Z,9.38
2019-05-17T00:46:17.280Z,9.43
2019-05-17T00:47:17.131Z,9.38
2019-05-17T00:48:17.171Z,9.47
2019-05-17T00:49:17.142Z,9.40
2019-05-17T00:50:17.202Z,9.46
2019-05-17T00:51:16.812Z,9.46
2019-05-17T00:52:16.849Z,9.40
2019-05-17T00:53:16.527Z,9.36
2019-05-17T00:54:17.435Z,9.40
2019-05-17T00:55:17.482Z,9.39
2019-05-17T00:56:17.181Z,9.42
2019-05-17T00:57:16.680Z,9.39
2019-05-17T00:58:17.317Z,9.39
2019-05-17T00:59:17.060Z,9.36
2019-05-17T01:00:17.022Z,9.39
2019-05-17T01:01:16.544Z,9.38
2019-05-17T01:02:16.442Z,9.40
2019-05-17T01:03:16.399Z,9.39
2019-05-17T01:05:17.432Z,9.40
2019-05-17T01:06:16.961Z,9.39
2019-05-17T01:07:17.716Z,9.38
2019-05-17T01:09:17.494Z,9.46
2019-05-17T01:10:16.747Z,9.56
2019-05-17T01:11:16.578Z,9.48
2019-05-17T01:12:16.554Z,9.46
2019-05-17T01:13:17.290Z,9.46
2019-05-17T01:14:17.575Z,9.48
2019-05-17T01:15:16.842Z,9.64
2019-05-17T01:16:16.626Z,9.61
2019-05-17T01:17:16.632Z,9.51
2019-05-17T01:18:16.397Z,9.47
2019-05-17T01:19:16.541Z,9.50
2019-05-17T01:20:17.397Z,9.46
2019-05-17T01:21:16.906Z,9.50
2019-05-17T01:22:16.864Z,9.46
2019-05-17T01:23:16.648Z,9.50
2019-05-17T01:24:17.348Z,9.54
2019-05-17T01:25:17.113Z,9.48
2019-05-17T01:26:18.272Z,9.64
2019-05-17T01:27:17.276Z,9.57
2019-05-17T01:28:16.477Z,9.58
2019-05-17T01:29:17.498Z,9.48
2019-05-17T01:30:17.551Z,9.51
2019-05-17T01:31:17.258Z,9.38
2019-05-17T01:32:17.230Z,9.38
2019-05-17T01:33:17.098Z,9.35
2019-05-17T01:34:16.665Z,9.24
2019-05-17T01:35:16.767Z,9.31
2019-05-17T01:36:17.398Z,9.26
2019-05-17T01:37:17.182Z,9.24
2019-05-17T01:38:17.717Z,9.23
2019-05-17T01:39:21.035Z,9.28
2019-05-17T01:40:17.594Z,9.23
2019-05-17T01:41:17.339Z,9.24
2019-05-17T01:42:17.192Z,9.24
2019-05-17T01:43:16.664Z,9.21
2019-05-17T01:44:23.250Z,9.26
2019-05-17T01:45:16.668Z,9.24
2019-05-17T01:46:17.188Z,9.23
2019-05-17T01:47:16.672Z,9.20
2019-05-17T01:48:16.412Z,9.21
2019-05-17T01:49:16.445Z,9.20
2019-05-17T01:50:17.492Z,9.20
2019-05-17T01:51:16.894Z,9.17
2019-05-17T01:52:16.767Z,9.23
2019-05-17T01:53:16.601Z,9.20
2019-05-17T01:54:17.560Z,9.28
2019-05-17T01:55:17.416Z,9.28
2019-05-17T01:56:16.933Z,9.20
2019-05-17T01:57:16.861Z,9.28
2019-05-17T01:58:16.406Z,9.24
2019-05-17T01:59:17.273Z,9.35
2019-05-17T02:00:17.589Z,9.36
2019-05-17T02:01:16.974Z,9.42
2019-05-17T02:02:16.432Z,9.42
2019-05-17T02:03:17.372Z,9.42
2019-05-17T02:04:17.370Z,9.38
2019-05-17T02:05:17.322Z,9.46
2019-05-17T02:06:16.577Z,9.47
2019-05-17T02:07:17.280Z,9.50
2019-05-17T02:08:17.066Z,9.48
2019-05-17T02:09:32.317Z,9.56
2019-05-17T02:10:16.992Z,9.60
2019-05-17T02:11:18.457Z,9.48
2019-05-17T02:12:17.306Z,9.58
2019-05-17T02:13:16.430Z,9.57
2019-05-17T02:14:16.524Z,9.48
2019-05-17T02:15:16.430Z,9.50
2019-05-17T02:16:16.532Z,9.50
2019-05-17T02:17:17.442Z,9.43
2019-05-17T02:18:17.362Z,9.33
2019-05-17T02:19:17.456Z,9.35
2019-05-17T02:20:17.091Z,9.38
2019-05-17T02:21:16.885Z,9.35
2019-05-17T02:22:16.704Z,9.35
2019-05-17T02:23:17.390Z,9.40
2019-05-17T02:24:16.940Z,9.46
2019-05-17T02:25:16.692Z,9.43
2019-05-17T02:26:17.354Z,9.40
2019-05-17T02:27:15.467Z,9.46
2019-05-17T02:28:15.459Z,9.40
2019-05-17T02:29:15.431Z,9.47
2019-05-17T02:30:15.455Z,9.36
2019-05-17T02:31:15.443Z,9.42
2019-05-17T02:32:15.407Z,9.47
2019-05-17T02:33:15.401Z,9.39
2019-05-17T02:34:15.381Z,9.38
2019-05-17T02:35:15.385Z,9.33
2019-05-17T02:36:15.393Z,9.39
2019-05-17T02:37:15.353Z,9.38
2019-05-17T02:38:15.345Z,9.42
2019-05-17T02:39:15.349Z,9.47
2019-05-17T02:40:15.628Z,9.35
2019-05-17T02:41:15.317Z,9.29
2019-05-17T02:42:15.324Z,9.29
2019-05-17T02:43:15.277Z,9.24
2019-05-17T02:44:15.274Z,9.21
2019-05-17T02:45:15.275Z,9.23
2019-05-17T02:46:15.280Z,9.24
2019-05-17T02:47:15.241Z,9.18
2019-05-17T02:48:15.227Z,9.24
2019-05-17T02:49:15.220Z,9.21
2019-05-17T02:50:15.207Z,9.26
2019-05-17T02:51:15.211Z,9.20
2019-05-17T02:52:15.183Z,9.20
2019-05-17T02:53:15.185Z,9.21
2019-05-17T02:54:15.162Z,9.23
2019-05-17T02:55:15.153Z,9.20
2019-05-17T02:56:15.178Z,9.26
2019-05-17T02:57:15.132Z,9.26
2019-05-17T02:58:15.128Z,9.29
2019-05-17T02:59:15.106Z,9.23
2019-05-17T03:00:15.117Z,9.23
2019-05-17T03:01:15.101Z,9.24
2019-05-17T03:02:15.083Z,9.23
2019-05-17T03:03:15.067Z,9.26
2019-05-17T03:04:15.060Z,9.35
2019-05-17T03:05:15.049Z,9.24
2019-05-17T03:06:15.067Z,9.21
2019-05-17T03:07:15.018Z,9.35
2019-05-17T03:08:15.025Z,9.33
2019-05-17T03:09:15.000Z,9.33
2019-05-17T03:10:23.922Z,9.29
2019-05-17T03:11:16.006Z,9.40
2019-05-17T03:12:15.017Z,9.46
2019-05-17T03:13:17.923Z,9.36
2019-05-17T03:14:14.944Z,9.39
2019-05-17T03:15:14.979Z,9.42
2019-05-17T03:16:15.098Z,9.39
2019-05-17T03:17:14.940Z,9.36
2019-05-17T03:18:14.896Z,9.39
2019-05-17T03:19:14.892Z,9.39
2019-05-17T03:20:14.911Z,9.48
2019-05-17T03:21:14.877Z,9.42
2019-05-17T03:22:14.914Z,9.40
2019-05-17T03:23:14.858Z,9.50
2019-05-17T03:24:14.831Z,9.50
2019-05-17T03:25:14.840Z,9.50
2019-05-17T03:26:14.817Z,9.56
2019-05-17T03:27:14.824Z,9.50
2019-05-17T03:28:14.794Z,9.53
2019-05-17T03:29:14.786Z,9.50
2019-05-17T03:30:18.363Z,9.51
2019-05-17T03:31:16.868Z,9.48
2019-05-17T03:32:17.196Z,9.53
2019-05-17T03:33:16.499Z,9.47
2019-05-17T03:34:16.710Z,9.57
2019-05-17T03:35:17.448Z,9.47
2019-05-17T03:36:16.860Z,9.53
2019-05-17T03:37:15.994Z,9.48
2019-05-17T03:38:14.688Z,9.48
2019-05-17T03:39:14.668Z,9.54
2019-05-17T03:40:30.603Z,9.50
2019-05-17T03:41:23.183Z,9.43
2019-05-17T03:42:15.650Z,9.51
2019-05-17T03:43:14.661Z,9.57
2019-05-17T03:44:14.631Z,9.54
2019-05-17T03:45:14.658Z,9.54
2019-05-17T03:46:14.593Z,9.58
2019-05-17T03:47:14.586Z,9.51
2019-05-17T03:48:14.632Z,9.46
2019-05-17T03:49:14.581Z,9.51
2019-05-17T03:50:14.680Z,9.56
2019-05-17T03:51:14.564Z,9.56
2019-05-17T03:52:14.535Z,9.31
2019-05-17T03:53:14.545Z,9.35
2019-05-17T03:54:14.512Z,9.40
2019-05-17T03:55:14.497Z,9.38
2019-05-17T03:56:14.491Z,9.33
2019-05-17T03:57:14.474Z,9.31
2019-05-17T03:58:14.499Z,9.31
2019-05-17T03:59:14.458Z,9.29
2019-05-17T04:00:14.455Z,9.32
2019-05-17T04:01:14.476Z,9.24
2019-05-17T04:02:14.417Z,9.20
2019-05-17T04:03:14.474Z,9.18
2019-05-17T04:04:14.397Z,9.35
2019-05-17T04:05:14.403Z,9.26
2019-05-17T04:06:14.393Z,9.29
2019-05-17T04:07:14.375Z,9.38
2019-05-17T04:08:14.355Z,9.32
2019-05-17T04:09:14.377Z,9.31
2019-05-17T04:10:15.300Z,9.33
2019-05-17T04:11:26.013Z,9.36
2019-05-17T04:12:15.307Z,9.42
2019-05-17T04:13:14.302Z,9.47
2019-05-17T04:14:14.308Z,9.36
2019-05-17T04:15:14.288Z,9.38
2019-05-17T04:16:14.477Z,9.42
2019-05-17T04:17:14.260Z,9.38
2019-05-17T04:18:14.254Z,9.36
2019-05-17T04:19:14.278Z,9.40
2019-05-17T04:20:14.433Z,9.38
2019-05-17T04:21:14.249Z,9.48
2019-05-17T04:22:14.233Z,9.46
2019-05-17T04:23:14.207Z,9.50
2019-05-17T04:24:14.179Z,9.58
2019-05-17T04:25:14.465Z,9.65
2019-05-17T04:26:14.163Z,9.60
2019-05-17T04:27:14.190Z,9.65
2019-05-17T04:28:14.158Z,9.64
2019-05-17T04:29:14.144Z,9.66
2019-05-17T04:30:14.168Z,9.75
2019-05-17T04:31:14.111Z,9.75
2019-05-17T04:32:14.114Z,9.72
2019-05-17T04:33:14.097Z,9.74
2019-05-17T04:34:14.078Z,9.74
2019-05-17T04:35:14.103Z,9.76
2019-05-17T04:36:14.091Z,9.78
2019-05-17T04:37:14.040Z,9.83
2019-05-17T04:38:14.034Z,9.78
2019-05-17T04:39:14.017Z,9.89
2019-05-17T04:40:14.837Z,9.78
2019-05-17T04:41:14.029Z,9.84
2019-05-17T04:42:13.987Z,9.86
2019-05-17T04:43:13.976Z,9.83
2019-05-17T04:44:13.961Z,9.84
2019-05-17T04:45:13.989Z,9.94
2019-05-17T04:46:13.938Z,9.89
2019-05-17T04:47:13.962Z,9.76
2019-05-17T04:48:13.919Z,9.83
2019-05-17T04:49:14.140Z,9.81
2019-05-17T04:50:14.257Z,9.72
2019-05-17T04:51:13.895Z,9.79
2019-05-17T04:52:14.079Z,9.78
2019-05-17T04:53:23.344Z,9.74
2019-05-17T04:54:14.176Z,9.78
2019-05-17T04:55:14.153Z,9.78
2019-05-17T04:56:14.339Z,9.78
2019-05-17T04:57:13.850Z,9.76
2019-05-17T04:58:23.530Z,9.76
2019-05-17T04:59:14.256Z,9.79
2019-05-17T05:00:22.655Z,9.90
2019-05-17T05:01:13.796Z,9.90
2019-05-17T05:02:23.537Z,9.90
2019-05-17T05:03:13.768Z,9.91
2019-05-17T05:04:22.786Z,9.91
2019-05-17T05:05:14.153Z,9.99
2019-05-17T05:06:13.726Z,10.02
2019-05-17T05:07:14.034Z,10.14
2019-05-17T05:08:22.570Z,10.18
2019-05-17T05:09:13.701Z,10.23
2019-05-17T05:10:14.364Z,10.27
2019-05-17T05:11:13.676Z,10.33
2019-05-17T05:12:13.733Z,10.40
2019-05-17T05:13:13.671Z,10.41
2019-05-17T05:14:13.642Z,10.41
2019-05-17T05:15:13.635Z,10.61
2019-05-17T05:16:13.760Z,10.59
2019-05-17T05:17:13.604Z,10.64
2019-05-17T05:18:13.891Z,10.56
2019-05-17T05:19:13.591Z,10.61
2019-05-17T05:20:13.796Z,10.52
2019-05-17T05:21:13.570Z,10.60
2019-05-17T05:22:17.424Z,10.63
2019-05-17T05:23:13.711Z,10.60
2019-05-17T05:24:13.537Z,10.68
2019-05-17T05:25:13.521Z,10.66
2019-05-17T05:26:13.514Z,10.71
2019-05-17T05:27:13.499Z,10.78
2019-05-17T05:28:13.536Z,10.70
2019-05-17T05:29:13.470Z,10.67
2019-05-17T05:30:13.473Z,10.79
2019-05-17T05:31:13.468Z,10.68
2019-05-17T05:32:13.464Z,10.73
2019-05-17T05:33:13.471Z,10.74
2019-05-17T05:34:13.414Z,10.79
2019-05-17T05:35:13.410Z,10.84
2019-05-17T05:36:13.392Z,10.81
2019-05-17T05:37:13.493Z,10.86
2019-05-17T05:38:13.492Z,10.85
2019-05-17T05:39:13.364Z,10.91
2019-05-17T05:40:13.356Z,10.82
2019-05-17T05:41:13.338Z,10.85
2019-05-17T05:42:14.084Z,10.88
2019-05-17T05:43:13.335Z,10.82
2019-05-17T05:44:13.309Z,10.85
2019-05-17T05:45:13.293Z,10.78
2019-05-17T05:46:13.297Z,10.82
2019-05-17T05:47:13.273Z,10.89
2019-05-17T05:48:13.321Z,10.84
2019-05-17T05:49:13.266Z,10.85
2019-05-17T05:50:13.249Z,10.85
2019-05-17T05:51:13.811Z,10.86
2019-05-17T05:52:13.216Z,10.91
2019-05-17T05:53:13.387Z,11.00
2019-05-17T05:54:13.202Z,10.99
2019-05-17T05:55:13.201Z,11.04
2019-05-17T05:56:13.550Z,10.92
2019-05-17T05:57:13.189Z,11.02
2019-05-17T05:58:13.154Z,11.03
2019-05-17T05:59:13.166Z,11.04
2019-05-17T06:00:13.213Z,11.10
2019-05-17T06:01:13.146Z,11.15
2019-05-17T06:02:13.125Z,11.10
2019-05-17T06:03:13.098Z,11.18
2019-05-17T06:04:13.106Z,11.11
2019-05-17T06:05:17.156Z,11.09
2019-05-17T06:06:13.075Z,11.07
2019-05-17T06:07:13.084Z,11.10
2019-05-17T06:08:13.047Z,11.14
2019-05-17T06:09:13.076Z,11.14
2019-05-17T06:10:13.375Z,11.17
2019-05-17T06:11:13.034Z,11.21
2019-05-17T06:12:22.997Z,11.21
2019-05-17T06:13:13.992Z,11.29
2019-05-17T06:14:13.008Z,11.24
2019-05-17T06:15:13.010Z,11.33
2019-05-17T06:16:12.958Z,11.32
2019-05-17T06:17:12.950Z,11.37
2019-05-17T06:18:12.970Z,11.37
2019-05-17T06:19:12.941Z,11.42
2019-05-17T06:20:12.923Z,11.40
2019-05-17T06:21:12.912Z,11.43
2019-05-17T06:22:12.896Z,11.42
2019-05-17T06:23:12.892Z,11.54
2019-05-17T06:24:12.900Z,11.49
2019-05-17T06:25:15.374Z,11.52
2019-05-17T06:26:12.862Z,11.57
2019-05-17T06:27:12.838Z,11.57
2019-05-17T06:28:12.856Z,11.49
2019-05-17T06:29:12.848Z,11.51
2019-05-17T06:30:12.962Z,11.61
2019-05-17T06:31:15.047Z,11.65
2019-05-17T06:32:12.785Z,11.65
2019-05-17T06:33:26.776Z,11.62
2019-05-17T06:34:13.797Z,11.70
2019-05-17T06:35:13.066Z,11.73
2019-05-17T06:36:13.643Z,11.76
2019-05-17T06:37:14.900Z,11.78
2019-05-17T06:38:12.733Z,11.79
2019-05-17T06:39:12.795Z,11.88
2019-05-17T06:40:13.321Z,11.86
2019-05-17T06:41:12.812Z,11.76
2019-05-17T06:42:12.710Z,11.91
2019-05-17T06:43:13.338Z,11.98
2019-05-17T06:44:12.695Z,11.90
2019-05-17T06:45:12.796Z,11.96
2019-05-17T06:46:12.644Z,11.88
2019-05-17T06:47:12.667Z,12.01
2019-05-17T06:48:12.659Z,12.04
2019-05-17T06:49:12.840Z,12.01
2019-05-17T06:50:14.356Z,12.01
2019-05-17T06:51:12.583Z,12.05
2019-05-17T06:52:12.576Z,12.01
2019-05-17T06:53:12.708Z,12.10
2019-05-17T06:54:12.564Z,12.10
2019-05-17T06:55:12.941Z,12.16
2019-05-17T06:56:12.918Z,12.14
2019-05-17T06:57:12.930Z,12.17
2019-05-17T06:58:12.511Z,12.24
2019-05-17T06:59:12.563Z,12.32
2019-05-17T07:00:19.477Z,12.35
2019-05-17T07:01:13.479Z,12.35
2019-05-17T07:02:12.469Z,12.45
2019-05-17T07:03:12.463Z,12.45
2019-05-17T07:04:12.449Z,12.41
2019-05-17T07:05:12.456Z,12.45
2019-05-17T07:06:12.453Z,12.52
2019-05-17T07:07:12.407Z,12.54
2019-05-17T07:08:12.424Z,12.56
2019-05-17T07:09:12.420Z,12.50
2019-05-17T07:10:12.526Z,12.70
2019-05-17T07:11:12.388Z,12.65
2019-05-17T07:12:12.398Z,12.67
2019-05-17T07:13:12.348Z,12.75
2019-05-17T07:14:12.346Z,12.77
2019-05-17T07:15:12.359Z,12.71
2019-05-17T07:16:12.327Z,12.79
2019-05-17T07:17:12.332Z,12.86
2019-05-17T07:18:12.318Z,12.90
2019-05-17T07:19:12.292Z,12.87
2019-05-17T07:20:12.300Z,12.92
2019-05-17T07:21:12.283Z,13.04
2019-05-17T07:22:12.250Z,13.14
2019-05-17T07:23:12.245Z,13.14
2019-05-17T07:24:12.262Z,13.11
2019-05-17T07:25:12.249Z,13.20
2019-05-17T07:26:12.241Z,13.17
2019-05-17T07:27:12.226Z,13.20
2019-05-17T07:28:12.185Z,13.10
2019-05-17T07:29:12.179Z,13.17
2019-05-17T07:30:12.188Z,13.05
2019-05-17T07:31:12.159Z,13.20
2019-05-17T07:32:12.170Z,13.12
2019-05-17T07:33:12.132Z,13.19
2019-05-17T07:34:12.126Z,13.14
2019-05-17T07:35:12.140Z,13.23
2019-05-17T07:36:12.092Z,13.25
2019-05-17T07:37:12.094Z,13.26
2019-05-17T07:38:12.070Z,13.26
2019-05-17T07:39:12.075Z,13.26
2019-05-17T07:40:12.073Z,13.26
2019-05-17T07:41:12.038Z,13.28
2019-05-17T07:42:12.049Z,13.29
2019-05-17T07:43:14.682Z,13.44
2019-05-17T07:44:12.003Z,13.46
2019-05-17T07:45:12.023Z,13.38
2019-05-17T07:46:11.993Z,13.41
2019-05-17T07:47:11.970Z,13.48
2019-05-17T07:48:11.970Z,13.41
2019-05-17T07:49:11.947Z,13.33
2019-05-17T07:50:11.944Z,13.32
2019-05-17T07:51:12.056Z,13.48
2019-05-17T07:52:11.933Z,13.51
2019-05-17T07:53:11.905Z,13.52
2019-05-17T07:54:11.912Z,13.60
2019-05-17T07:55:11.890Z,13.62
2019-05-17T07:56:11.916Z,13.73
2019-05-17T07:57:11.900Z,13.71
2019-05-17T07:58:21.314Z,13.91
2019-05-17T07:59:11.849Z,13.95
2019-05-17T08:00:11.854Z,13.87
2019-05-17T08:01:11.869Z,13.92
2019-05-17T08:02:11.804Z,13.95
2019-05-17T08:03:13.219Z,13.92
2019-05-17T08:04:11.788Z,13.85
2019-05-17T08:05:11.788Z,14.00
2019-05-17T08:06:11.781Z,13.96
2019-05-17T08:07:11.768Z,13.96
2019-05-17T08:08:11.736Z,13.92
2019-05-17T08:09:13.734Z,14.07
2019-05-17T08:10:11.724Z,14.09
2019-05-17T08:11:11.735Z,14.14
2019-05-17T08:12:11.717Z,14.14
2019-05-17T08:13:25.657Z,14.20
2019-05-17T08:14:26.799Z,14.28
2019-05-17T08:15:12.682Z,14.28
2019-05-17T08:16:11.728Z,14.32
2019-05-17T08:17:11.654Z,14.36
2019-05-17T08:18:11.631Z,14.42
2019-05-17T08:19:11.629Z,14.43
2019-05-17T08:20:11.606Z,14.42
2019-05-17T08:21:11.718Z,14.28
2019-05-17T08:22:11.589Z,14.33
2019-05-17T08:23:11.593Z,14.35
2019-05-17T08:24:11.617Z,14.27
2019-05-17T08:25:11.561Z,14.33
2019-05-17T08:26:11.563Z,14.24
2019-05-17T08:27:11.538Z,14.17
2019-05-17T08:28:11.532Z,14.25
2019-05-17T08:29:11.576Z,14.18
2019-05-17T08:30:11.651Z,14.27
2019-05-17T08:31:11.505Z,14.28
2019-05-17T08:32:11.476Z,14.28
2019-05-17T08:33:11.478Z,14.27
2019-05-17T08:34:11.490Z,14.28
2019-05-17T08:35:11.649Z,14.37
2019-05-17T08:36:11.453Z,14.36
2019-05-17T08:37:11.437Z,14.36
2019-05-17T08:38:11.417Z,14.39
2019-05-17T08:39:11.416Z,14.36
2019-05-17T08:40:14.607Z,14.40
2019-05-17T08:41:11.426Z,14.47
2019-05-17T08:42:11.368Z,14.43
2019-05-17T08:43:11.368Z,14.43
2019-05-17T08:44:11.358Z,14.58
2019-05-17T08:45:11.349Z,14.52
2019-05-17T08:46:11.363Z,14.54
2019-05-17T08:47:11.311Z,14.57
2019-05-17T08:48:11.330Z,14.62
2019-05-17T08:49:11.295Z,14.73
2019-05-17T08:50:11.727Z,14.73
2019-05-17T08:51:11.322Z,14.89
2019-05-17T08:52:11.260Z,14.78
2019-05-17T08:53:11.245Z,14.86
2019-05-17T08:54:11.235Z,14.98
2019-05-17T08:55:11.227Z,14.89
2019-05-17T08:56:11.339Z,15.02
2019-05-17T08:57:11.231Z,15.09
2019-05-17T08:58:11.205Z,15.17
2019-05-17T08:59:11.196Z,15.27
2019-05-17T09:00:11.204Z,15.32
2019-05-17T09:01:11.418Z,15.43
2019-05-17T09:02:11.162Z,15.41
2019-05-17T09:03:11.146Z,15.56
2019-05-17T09:04:11.122Z,15.57
2019-05-17T09:05:11.117Z,15.64
2019-05-17T09:06:12.282Z,15.62
2019-05-17T09:07:11.128Z,15.69
2019-05-17T09:08:20.685Z,15.75
2019-05-17T09:09:11.066Z,15.65
2019-05-17T09:10:11.062Z,15.68
2019-05-17T09:11:11.045Z,15.72
2019-05-17T09:12:11.215Z,15.65
2019-05-17T09:13:14.596Z,15.80
2019-05-17T09:14:11.017Z,15.74
2019-05-17T09:15:11.014Z,15.83
2019-05-17T09:16:11.014Z,15.71
2019-05-17T09:17:11.071Z,15.71
2019-05-17T09:18:10.972Z,15.65
2019-05-17T09:19:10.976Z,15.67
2019-05-17T09:20:11.201Z,15.68
2019-05-17T09:21:10.937Z,15.71
2019-05-17T09:22:10.943Z,15.68
2019-05-17T09:23:10.925Z,15.75
2019-05-17T09:24:10.919Z,15.89
2019-05-17T09:25:15.754Z,15.90
2019-05-17T09:26:11.886Z,15.96
2019-05-17T09:27:10.895Z,16.02
2019-05-17T09:28:10.861Z,15.96
2019-05-17T09:29:10.950Z,16.04
2019-05-17T09:30:10.883Z,16.17
2019-05-17T09:31:10.836Z,16.14
2019-05-17T09:32:10.859Z,16.11
2019-05-17T09:33:11.510Z,16.25
2019-05-17T09:34:20.284Z,16.21
2019-05-17T09:35:10.789Z,16.45
2019-05-17T09:36:10.795Z,16.53
2019-05-17T09:37:10.794Z,16.63
2019-05-17T09:38:10.765Z,16.68
2019-05-17T09:39:10.741Z,16.71
2019-05-17T09:40:10.739Z,16.85
2019-05-17T09:41:10.729Z,16.86
2019-05-17T09:42:10.753Z,16.88
2019-05-17T09:43:10.705Z,16.98
2019-05-17T09:44:15.918Z,17.04
2019-05-17T09:45:11.684Z,17.04
2019-05-17T09:46:10.885Z,17.21
2019-05-17T09:47:10.705Z,17.31
2019-05-17T09:48:10.772Z,17.37
2019-05-17T09:49:10.692Z,17.62
2019-05-17T09:50:10.636Z,17.63
2019-05-17T09:51:10.719Z,17.71
2019-05-17T09:52:10.670Z,17.72
2019-05-17T09:53:11.027Z,17.75
2019-05-17T09:54:10.593Z,17.90
2019-05-17T09:55:10.591Z,17.89
2019-05-17T09:56:10.554Z,17.95
2019-05-17T09:57:10.547Z,18.07
2019-05-17T09:58:10.579Z,18.08
2019-05-17T09:59:10.545Z,18.25
2019-05-17T10:00:10.520Z,18.26
2019-05-17T10:01:10.505Z,18.20
2019-05-17T10:02:10.494Z,18.14
2019-05-17T10:03:10.509Z,18.17
2019-05-17T10:04:13.506Z,18.05
2019-05-17T10:05:10.928Z,18.11
2019-05-17T10:06:10.451Z,18.20
2019-05-17T10:07:10.440Z,18.27
2019-05-17T10:08:11.002Z,18.14
2019-05-17T10:09:10.421Z,18.21
2019-05-17T10:10:10.882Z,18.20
2019-05-17T10:11:12.120Z,18.29
2019-05-17T10:12:10.396Z,18.32
2019-05-17T10:13:10.422Z,18.27
2019-05-17T10:14:24.553Z,18.44
2019-05-17T10:15:11.350Z,18.41
2019-05-17T10:16:10.347Z,18.35
2019-05-17T10:17:10.333Z,18.36
2019-05-17T10:18:11.115Z,18.30
2019-05-17T10:19:10.318Z,18.36
2019-05-17T10:20:10.913Z,18.41
2019-05-17T10:21:10.553Z,18.47
2019-05-17T10:22:10.528Z,18.57
2019-05-17T10:23:10.804Z,18.54
2019-05-17T10:24:10.252Z,18.67
2019-05-17T10:25:10.248Z,18.81
2019-05-17T10:26:10.391Z,18.90
2019-05-17T10:27:10.947Z,18.90
2019-05-17T10:28:10.337Z,18.99
2019-05-17T10:29:10.212Z,19.00
2019-05-17T10:30:10.610Z,19.02
2019-05-17T10:31:11.225Z,19.02
2019-05-17T10:32:10.595Z,19.06
2019-05-17T10:33:10.254Z,19.19
2019-05-17T10:34:10.148Z,19.25
2019-05-17T10:35:10.139Z,19.31
2019-05-17T10:36:10.124Z,19.33
2019-05-17T10:37:10.539Z,19.36
2019-05-17T10:38:10.509Z,19.54
2019-05-17T10:39:10.122Z,19.43
2019-05-17T10:40:10.591Z,19.44
2019-05-17T10:41:10.316Z,19.44
2019-05-17T10:42:10.160Z,19.31
2019-05-17T10:43:10.419Z,19.21
2019-05-17T10:44:10.037Z,19.23
2019-05-17T10:45:11.036Z,19.22
2019-05-17T10:46:10.583Z,19.39
2019-05-17T10:47:10.182Z,19.47
2019-05-17T10:48:10.494Z,19.46
2019-05-17T10:49:10.801Z,19.50
2019-05-17T10:50:10.834Z,19.65
2019-05-17T10:51:12.824Z,19.58
2019-05-17T10:52:09.956Z,19.61
2019-05-17T10:53:10.399Z,19.54
2019-05-17T10:54:09.931Z,19.54
2019-05-17T10:55:10.466Z,19.50
2019-05-17T10:56:10.121Z,19.50
2019-05-17T10:57:10.487Z,19.59
2019-05-17T10:58:10.310Z,19.55
2019-05-17T10:59:10.042Z,19.54
2019-05-17T11:00:10.325Z,19.73
2019-05-17T11:01:10.389Z,19.71
2019-05-17T11:02:10.106Z,19.69
2019-05-17T11:03:10.144Z,19.81
2019-05-17T11:04:10.453Z,19.76
2019-05-17T11:05:10.520Z,19.71
2019-05-17T11:06:10.883Z,19.76
2019-05-17T11:07:10.512Z,19.56
2019-05-17T11:08:10.805Z,19.44
2019-05-17T11:09:10.253Z,19.26
2019-05-17T11:10:11.644Z,19.32
2019-05-17T11:11:10.225Z,19.28
2019-05-17T11:12:09.744Z,19.41
2019-05-17T11:13:09.739Z,19.51
2019-05-17T11:14:09.746Z,19.50
2019-05-17T11:15:11.842Z,19.74
2019-05-17T11:16:09.689Z,19.78
2019-05-17T11:17:09.673Z,19.76
2019-05-17T11:18:09.669Z,20.01
2019-05-17T11:19:09.687Z,20.02
2019-05-17T11:20:09.639Z,20.05
2019-05-17T11:21:09.637Z,20.10
2019-05-17T11:22:09.628Z,20.10
2019-05-17T11:23:09.646Z,20.18
2019-05-17T11:24:09.647Z,20.16
2019-05-17T11:25:09.595Z,20.10
2019-05-17T11:26:09.610Z,20.10
2019-05-17T11:27:09.577Z,20.14
2019-05-17T11:28:09.585Z,20.16
2019-05-17T11:29:09.558Z,20.14
2019-05-17T11:30:09.562Z,20.17
2019-05-17T11:31:09.522Z,20.18
2019-05-17T11:32:09.543Z,20.18
2019-05-17T11:33:09.986Z,20.21
2019-05-17T11:34:09.517Z,20.10
2019-05-17T11:35:09.515Z,20.08
2019-05-17T11:36:09.471Z,19.99
2019-05-17T11:37:09.458Z,19.95
2019-05-17T11:38:09.463Z,19.83
2019-05-17T11:39:09.459Z,19.78
2019-05-17T11:40:09.430Z,19.80
2019-05-17T11:41:20.763Z,19.86
2019-05-17T11:42:10.411Z,19.65
2019-05-17T11:43:09.444Z,19.68
2019-05-17T11:44:09.422Z,19.55
2019-05-17T11:45:09.389Z,19.65
2019-05-17T11:46:09.366Z,19.59
2019-05-17T11:47:09.366Z,19.59
2019-05-17T11:48:09.350Z,19.61
2019-05-17T11:49:09.381Z,19.73
2019-05-17T11:50:09.318Z,19.76
2019-05-17T11:51:09.314Z,19.83
2019-05-17T11:52:09.306Z,19.92
2019-05-17T11:53:09.300Z,19.88
2019-05-17T11:54:09.315Z,19.80
2019-05-17T11:55:09.283Z,19.87
2019-05-17T11:56:09.298Z,19.96
2019-05-17T11:57:12.199Z,19.87
2019-05-17T11:58:09.260Z,19.92
2019-05-17T11:59:09.245Z,19.95
2019-05-17T12:00:09.210Z,19.99
2019-05-17T12:01:09.214Z,19.98
2019-05-17T12:02:09.198Z,20.03
2019-05-17T12:03:09.593Z,19.95
2019-05-17T12:04:09.255Z,19.88
2019-05-17T12:05:09.160Z,19.84
2019-05-17T12:06:09.148Z,19.80
2019-05-17T12:08:30.144Z,19.83
2019-05-17T12:09:37.358Z,19.78
2019-05-17T12:10:31.201Z,19.76
2019-05-17T12:11:30.113Z,19.66
2019-05-17T12:12:30.097Z,19.74
2019-05-17T12:13:30.089Z,19.76
2019-05-17T12:14:30.097Z,19.86
2019-05-17T12:15:43.820Z,19.81
2019-05-17T12:16:31.055Z,19.81
2019-05-17T12:17:30.056Z,19.83
2019-05-17T12:18:30.034Z,19.94
2019-05-17T12:19:30.047Z,20.08
2019-05-17T12:20:30.014Z,20.21
2019-05-17T12:21:30.008Z,20.43
2019-05-17T12:22:30.020Z,20.57
2019-05-17T12:23:30.003Z,20.92
2019-05-17T12:24:29.982Z,21.24
2019-05-17T12:25:29.958Z,21.77
2019-05-17T12:26:29.947Z,22.35
2019-05-17T12:27:29.937Z,23.00
2019-05-17T12:28:29.943Z,23.23
2019-05-17T12:29:29.947Z,23.32
2019-05-17T12:30:29.905Z,23.83
2019-05-17T12:31:29.903Z,24.09
2019-05-17T12:32:29.894Z,24.16
2019-05-17T12:33:29.873Z,24.18
2019-05-17T12:34:29.880Z,24.22
2019-05-17T12:35:29.858Z,24.16
2019-05-17T12:36:29.840Z,23.93
2019-05-17T12:37:29.831Z,23.69
2019-05-17T12:38:29.836Z,23.78
2019-05-17T12:39:29.834Z,23.60
2019-05-17T12:40:29.811Z,24.00
2019-05-17T12:41:29.799Z,24.06
2019-05-17T12:42:29.783Z,24.13
2019-05-17T12:43:29.772Z,24.16
2019-05-17T12:44:29.778Z,24.32
2019-05-17T12:45:29.756Z,24.60
2019-05-17T12:46:29.750Z,24.69
2019-05-17T12:47:29.748Z,24.91
2019-05-17T12:48:29.729Z,24.96
2019-05-17T12:49:29.727Z,25.06
2019-05-17T12:50:29.696Z,25.05
2019-05-17T12:51:32.807Z,25.03
2019-05-17T12:52:29.695Z,25.10
2019-05-17T12:53:29.671Z,24.91
2019-05-17T12:54:29.797Z,24.76
2019-05-17T12:55:29.653Z,24.53
2019-05-17T12:56:29.642Z,24.39
2019-05-17T12:57:29.656Z,23.95
2019-05-17T12:58:29.618Z,23.69
2019-05-17T12:59:29.633Z,23.47
2019-05-17T13:00:29.600Z,23.20
2019-05-17T13:01:29.582Z,23.02
2019-05-17T13:02:29.581Z,22.82
2019-05-17T13:03:29.570Z,22.64
2019-05-17T13:04:29.581Z,22.47
2019-05-17T13:05:29.546Z,22.24